Atqasuk, Alaska
Current Conditions -  °F | °C
As of 7:56 AM on Friday 19 Dec 2014 (Local Time) from PATQ Reporting Station
Clear Clear  
Wind Chill: -38°   Ceiling: Unl
Heat Index: -26°   Visibility: 10mi
Dew Point: -29°   Wind: 13mph
Humidity: 79%   Direction: 70°ENE
Pressure: 29.78"   Gusts: NA
Location:  70.47°N, 157.4°W
Report Text: PATQ 191656Z AUTO 07011KT 10SM CLR M26/M29 A2978 RMK AO2 TSNO T12611288 SNE26 P0000 SLP093 $
Loading
Personal Weather Stations






























Interactive Weather Map New forecast layout! Learn more

10-Day Weather Forecast

Advertisements
Track Severe Weather on mobile